sensor_id;sensor_type;location;lat;lon;timestamp;P1;durP1;ratioP1;P2;durP2;ratioP2
45208;SDS011;30951;43.994;26.260;2024-03-02T00:02:13;19.50;;;9.43;;
45208;SDS011;30951;43.994;26.260;2024-03-02T00:04:39;34.30;;;11.25;;
45208;SDS011;30951;43.994;26.260;2024-03-02T00:07:05;27.80;;;10.55;;
45208;SDS011;30951;43.994;26.260;2024-03-02T00:09:31;33.20;;;11.40;;
45208;SDS011;30951;43.994;26.260;2024-03-02T00:11:58;31.92;;;11.63;;
45208;SDS011;30951;43.994;26.260;2024-03-02T00:14:24;38.08;;;13.65;;
45208;SDS011;30951;43.994;26.260;2024-03-02T00:16:50;31.17;;;12.60;;
45208;SDS011;30951;43.994;26.260;2024-03-02T00:19:16;30.02;;;13.15;;
45208;SDS011;30951;43.994;26.260;2024-03-02T00:21:42;33.78;;;13.05;;
45208;SDS011;30951;43.994;26.260;2024-03-02T00:24:16;26.10;;;12.02;;
45208;SDS011;30951;43.994;26.260;2024-03-02T00:26:45;25.88;;;12.07;;
45208;SDS011;30951;43.994;26.260;2024-03-02T00:29:10;28.83;;;12.43;;
45208;SDS011;30951;43.994;26.260;2024-03-02T00:31:40;28.17;;;12.93;;
45208;SDS011;30951;43.994;26.260;2024-03-02T00:34:05;26.00;;;11.80;;
45208;SDS011;30951;43.994;26.260;2024-03-02T00:36:31;26.30;;;12.10;;
45208;SDS011;30951;43.994;26.260;2024-03-02T00:38:56;27.27;;;12.57;;
45208;SDS011;30951;43.994;26.260;2024-03-02T00:44:04;31.67;;;14.25;;
45208;SDS011;30951;43.994;26.260;2024-03-02T00:46:35;24.10;;;13.05;;
45208;SDS011;30951;43.994;26.260;2024-03-02T00:49:02;34.33;;;13.82;;
45208;SDS011;30951;43.994;26.260;2024-03-02T00:51:32;26.02;;;13.27;;
45208;SDS011;30951;43.994;26.260;2024-03-02T00:54:03;27.38;;;12.65;;
45208;SDS011;30951;43.994;26.260;2024-03-02T00:56:30;34.35;;;14.25;;
45208;SDS011;30951;43.994;26.260;2024-03-02T00:58:56;35.85;;;13.98;;
45208;SDS011;30951;43.994;26.260;2024-03-02T01:01:22;29.05;;;12.70;;
45208;SDS011;30951;43.994;26.260;2024-03-02T01:03:47;27.63;;;14.73;;
45208;SDS011;30951;43.994;26.260;2024-03-02T01:06:14;32.88;;;14.80;;
45208;SDS011;30951;43.994;26.260;2024-03-02T01:08:40;27.02;;;13.70;;
45208;SDS011;30951;43.994;26.260;2024-03-02T01:11:06;33.05;;;14.82;;
45208;SDS011;30951;43.994;26.260;2024-03-02T01:13:31;32.22;;;14.73;;
45208;SDS011;30951;43.994;26.260;2024-03-02T01:15:57;36.10;;;14.18;;
45208;SDS011;30951;43.994;26.260;2024-03-02T01:18:23;28.65;;;13.65;;
45208;SDS011;30951;43.994;26.260;2024-03-02T01:20:49;35.58;;;13.93;;
45208;SDS011;30951;43.994;26.260;2024-03-02T01:23:20;32.70;;;14.13;;
45208;SDS011;30951;43.994;26.260;2024-03-02T01:25:46;39.08;;;14.98;;
45208;SDS011;30951;43.994;26.260;2024-03-02T01:28:13;35.83;;;15.40;;
45208;SDS011;30951;43.994;26.260;2024-03-02T01:30:39;34.60;;;14.93;;
45208;SDS011;30951;43.994;26.260;2024-03-02T01:33:04;29.10;;;13.65;;
45208;SDS011;30951;43.994;26.260;2024-03-02T01:35:33;31.25;;;13.52;;
45208;SDS011;30951;43.994;26.260;2024-03-02T01:38:00;30.08;;;13.10;;
45208;SDS011;30951;43.994;26.260;2024-03-02T01:40:26;30.02;;;13.35;;
45208;SDS011;30951;43.994;26.260;2024-03-02T01:42:52;29.92;;;12.40;;
45208;SDS011;30951;43.994;26.260;2024-03-02T01:45:19;36.85;;;17.60;;
45208;SDS011;30951;43.994;26.260;2024-03-02T01:47:44;35.28;;;13.70;;
45208;SDS011;30951;43.994;26.260;2024-03-02T01:50:11;26.23;;;14.98;;
45208;SDS011;30951;43.994;26.260;2024-03-02T01:52:36;33.13;;;18.20;;
45208;SDS011;30951;43.994;26.260;2024-03-02T01:55:02;33.22;;;15.82;;
45208;SDS011;30951;43.994;26.260;2024-03-02T01:57:29;25.60;;;14.40;;
45208;SDS011;30951;43.994;26.260;2024-03-02T01:59:55;32.08;;;14.68;;
45208;SDS011;30951;43.994;26.260;2024-03-02T02:02:21;23.00;;;12.23;;
45208;SDS011;30951;43.994;26.260;2024-03-02T02:04:46;30.35;;;13.43;;
45208;SDS011;30951;43.994;26.260;2024-03-02T02:07:12;28.45;;;14.07;;
45208;SDS011;30951;43.994;26.260;2024-03-02T02:09:40;29.48;;;13.40;;
45208;SDS011;30951;43.994;26.260;2024-03-02T02:12:11;30.80;;;12.68;;
45208;SDS011;30951;43.994;26.260;2024-03-02T02:14:37;35.17;;;14.68;;
45208;SDS011;30951;43.994;26.260;2024-03-02T02:17:04;29.70;;;12.00;;
45208;SDS011;30951;43.994;26.260;2024-03-02T02:19:30;34.53;;;12.18;;
45208;SDS011;30951;43.994;26.260;2024-03-02T02:21:55;30.70;;;12.30;;
45208;SDS011;30951;43.994;26.260;2024-03-02T02:24:21;27.67;;;12.10;;
45208;SDS011;30951;43.994;26.260;2024-03-02T02:26:46;30.33;;;12.82;;
45208;SDS011;30951;43.994;26.260;2024-03-02T02:29:12;21.42;;;11.98;;
45208;SDS011;30951;43.994;26.260;2024-03-02T02:31:40;23.13;;;13.93;;
45208;SDS011;30951;43.994;26.260;2024-03-02T02:34:06;30.02;;;11.50;;
45208;SDS011;30951;43.994;26.260;2024-03-02T02:36:32;31.48;;;12.88;;
45208;SDS011;30951;43.994;26.260;2024-03-02T02:39:00;25.10;;;12.40;;
45208;SDS011;30951;43.994;26.260;2024-03-02T02:41:28;26.58;;;12.30;;
45208;SDS011;30951;43.994;26.260;2024-03-02T02:43:54;27.35;;;11.73;;
45208;SDS011;30951;43.994;26.260;2024-03-02T02:46:20;29.00;;;12.55;;
45208;SDS011;30951;43.994;26.260;2024-03-02T02:48:45;32.22;;;11.85;;
45208;SDS011;30951;43.994;26.260;2024-03-02T02:51:11;33.80;;;11.10;;
45208;SDS011;30951;43.994;26.260;2024-03-02T02:53:37;20.13;;;12.60;;
45208;SDS011;30951;43.994;26.260;2024-03-02T02:56:05;26.00;;;12.40;;
45208;SDS011;30951;43.994;26.260;2024-03-02T02:58:31;26.88;;;11.07;;
45208;SDS011;30951;43.994;26.260;2024-03-02T03:00:57;27.58;;;11.98;;
45208;SDS011;30951;43.994;26.260;2024-03-02T03:03:22;27.33;;;11.38;;
45208;SDS011;30951;43.994;26.260;2024-03-02T03:05:48;24.48;;;11.63;;
45208;SDS011;30951;43.994;26.260;2024-03-02T03:08:14;28.08;;;13.18;;
45208;SDS011;30951;43.994;26.260;2024-03-02T03:10:41;28.98;;;12.10;;
45208;SDS011;30951;43.994;26.260;2024-03-02T03:13:06;26.42;;;11.80;;
45208;SDS011;30951;43.994;26.260;2024-03-02T03:15:36;32.65;;;12.18;;
45208;SDS011;30951;43.994;26.260;2024-03-02T03:18:02;22.70;;;11.20;;
45208;SDS011;30951;43.994;26.260;2024-03-02T03:20:29;32.17;;;12.10;;
45208;SDS011;30951;43.994;26.260;2024-03-02T03:22:55;26.73;;;11.13;;
45208;SDS011;30951;43.994;26.260;2024-03-02T03:25:20;23.23;;;11.07;;
45208;SDS011;30951;43.994;26.260;2024-03-02T03:27:46;26.42;;;11.43;;
45208;SDS011;30951;43.994;26.260;2024-03-02T03:30:12;26.83;;;10.82;;
45208;SDS011;30951;43.994;26.260;2024-03-02T03:32:37;30.23;;;12.32;;
45208;SDS011;30951;43.994;26.260;2024-03-02T03:35:04;26.95;;;12.25;;
45208;SDS011;30951;43.994;26.260;2024-03-02T03:37:30;27.00;;;12.15;;
45208;SDS011;30951;43.994;26.260;2024-03-02T03:39:59;20.17;;;11.05;;
45208;SDS011;30951;43.994;26.260;2024-03-02T03:42:24;33.88;;;12.10;;
45208;SDS011;30951;43.994;26.260;2024-03-02T03:44:50;30.50;;;12.40;;
45208;SDS011;30951;43.994;26.260;2024-03-02T03:47:15;20.80;;;10.73;;
45208;SDS011;30951;43.994;26.260;2024-03-02T03:49:41;22.30;;;10.80;;
45208;SDS011;30951;43.994;26.260;2024-03-02T03:52:06;33.15;;;11.45;;
45208;SDS011;30951;43.994;26.260;2024-03-02T03:54:32;25.20;;;11.25;;
45208;SDS011;30951;43.994;26.260;2024-03-02T03:56:57;26.65;;;11.35;;
45208;SDS011;30951;43.994;26.260;2024-03-02T03:59:23;25.90;;;11.27;;
45208;SDS011;30951;43.994;26.260;2024-03-02T04:01:49;24.17;;;11.18;;
45208;SDS011;30951;43.994;26.260;2024-03-02T04:04:14;33.30;;;11.75;;
45208;SDS011;30951;43.994;26.260;2024-03-02T04:06:40;23.48;;;12.13;;
45208;SDS011;30951;43.994;26.260;2024-03-02T04:09:05;23.98;;;11.35;;
45208;SDS011;30951;43.994;26.260;2024-03-02T04:11:31;25.63;;;11.50;;
45208;SDS011;30951;43.994;26.260;2024-03-02T04:13:56;21.60;;;11.20;;
45208;SDS011;30951;43.994;26.260;2024-03-02T04:16:22;27.45;;;11.18;;
45208;SDS011;30951;43.994;26.260;2024-03-02T04:18:48;26.48;;;11.38;;
45208;SDS011;30951;43.994;26.260;2024-03-02T04:21:13;28.73;;;12.40;;
45208;SDS011;30951;43.994;26.260;2024-03-02T04:23:39;26.48;;;12.50;;
45208;SDS011;30951;43.994;26.260;2024-03-02T04:26:04;25.60;;;11.70;;
45208;SDS011;30951;43.994;26.260;2024-03-02T04:28:29;24.27;;;12.00;;
45208;SDS011;30951;43.994;26.260;2024-03-02T04:30:55;25.35;;;13.10;;
45208;SDS011;30951;43.994;26.260;2024-03-02T04:33:20;29.08;;;13.18;;
45208;SDS011;30951;43.994;26.260;2024-03-02T04:35:46;23.90;;;12.27;;
45208;SDS011;30951;43.994;26.260;2024-03-02T04:38:11;20.50;;;12.43;;
45208;SDS011;30951;43.994;26.260;2024-03-02T04:40:37;20.60;;;11.02;;
45208;SDS011;30951;43.994;26.260;2024-03-02T04:43:03;29.98;;;13.00;;
45208;SDS011;30951;43.994;26.260;2024-03-02T04:45:28;25.90;;;12.52;;
45208;SDS011;30951;43.994;26.260;2024-03-02T04:47:54;21.75;;;12.65;;
45208;SDS011;30951;43.994;26.260;2024-03-02T04:50:20;25.23;;;11.95;;
45208;SDS011;30951;43.994;26.260;2024-03-02T04:52:45;23.58;;;11.48;;
45208;SDS011;30951;43.994;26.260;2024-03-02T04:55:10;21.73;;;12.52;;
45208;SDS011;30951;43.994;26.260;2024-03-02T04:57:42;20.95;;;11.57;;
45208;SDS011;30951;43.994;26.260;2024-03-02T05:00:08;24.45;;;11.68;;
45208;SDS011;30951;43.994;26.260;2024-03-02T05:02:34;22.38;;;13.00;;
45208;SDS011;30951;43.994;26.260;2024-03-02T05:05:00;20.98;;;12.35;;
45208;SDS011;30951;43.994;26.260;2024-03-02T05:07:25;20.98;;;12.20;;
45208;SDS011;30951;43.994;26.260;2024-03-02T05:09:51;28.42;;;13.35;;
45208;SDS011;30951;43.994;26.260;2024-03-02T05:12:16;27.75;;;12.80;;
45208;SDS011;30951;43.994;26.260;2024-03-02T05:14:48;29.15;;;12.80;;
45208;SDS011;30951;43.994;26.260;2024-03-02T05:17:13;27.25;;;13.82;;
45208;SDS011;30951;43.994;26.260;2024-03-02T05:19:39;33.75;;;13.85;;
45208;SDS011;30951;43.994;26.260;2024-03-02T05:22:04;26.00;;;13.00;;
45208;SDS011;30951;43.994;26.260;2024-03-02T05:24:30;24.17;;;12.80;;
45208;SDS011;30951;43.994;26.260;2024-03-02T05:26:56;23.92;;;12.63;;
45208;SDS011;30951;43.994;26.260;2024-03-02T05:29:21;28.05;;;13.13;;
45208;SDS011;30951;43.994;26.260;2024-03-02T05:31:47;23.55;;;12.55;;
45208;SDS011;30951;43.994;26.260;2024-03-02T05:34:13;25.23;;;12.30;;
45208;SDS011;30951;43.994;26.260;2024-03-02T05:36:39;23.45;;;13.48;;
45208;SDS011;30951;43.994;26.260;2024-03-02T05:39:05;23.92;;;12.35;;
45208;SDS011;30951;43.994;26.260;2024-03-02T05:41:34;34.38;;;18.33;;
45208;SDS011;30951;43.994;26.260;2024-03-02T05:44:00;20.63;;;13.30;;
45208;SDS011;30951;43.994;26.260;2024-03-02T05:46:26;23.48;;;12.20;;
45208;SDS011;30951;43.994;26.260;2024-03-02T05:48:51;26.83;;;13.20;;
45208;SDS011;30951;43.994;26.260;2024-03-02T05:51:17;21.90;;;11.30;;
45208;SDS011;30951;43.994;26.260;2024-03-02T05:53:42;15.25;;;10.30;;
45208;SDS011;30951;43.994;26.260;2024-03-02T05:56:08;22.60;;;12.32;;
45208;SDS011;30951;43.994;26.260;2024-03-02T05:58:33;23.27;;;12.63;;
45208;SDS011;30951;43.994;26.260;2024-03-02T06:01:18;20.52;;;12.73;;
45208;SDS011;30951;43.994;26.260;2024-03-02T06:03:44;22.77;;;12.10;;
45208;SDS011;30951;43.994;26.260;2024-03-02T06:06:09;21.40;;;12.93;;
45208;SDS011;30951;43.994;26.260;2024-03-02T06:08:35;22.13;;;11.13;;
45208;SDS011;30951;43.994;26.260;2024-03-02T06:11:01;19.33;;;11.50;;
45208;SDS011;30951;43.994;26.260;2024-03-02T06:13:26;19.00;;;10.45;;
45208;SDS011;30951;43.994;26.260;2024-03-02T06:15:52;21.52;;;10.70;;
45208;SDS011;30951;43.994;26.260;2024-03-02T06:18:18;18.75;;;11.10;;
45208;SDS011;30951;43.994;26.260;2024-03-02T06:20:43;19.77;;;11.57;;
45208;SDS011;30951;43.994;26.260;2024-03-02T06:23:09;26.92;;;12.23;;
45208;SDS011;30951;43.994;26.260;2024-03-02T06:25:35;21.40;;;11.52;;
45208;SDS011;30951;43.994;26.260;2024-03-02T06:28:00;23.55;;;12.13;;
45208;SDS011;30951;43.994;26.260;2024-03-02T06:30:26;18.40;;;10.77;;
45208;SDS011;30951;43.994;26.260;2024-03-02T06:32:51;20.55;;;9.70;;
45208;SDS011;30951;43.994;26.260;2024-03-02T06:35:17;29.17;;;11.57;;
45208;SDS011;30951;43.994;26.260;2024-03-02T06:37:42;20.60;;;10.57;;
45208;SDS011;30951;43.994;26.260;2024-03-02T06:40:08;18.92;;;9.45;;
45208;SDS011;30951;43.994;26.260;2024-03-02T06:42:34;19.67;;;10.13;;
45208;SDS011;30951;43.994;26.260;2024-03-02T06:45:00;19.95;;;10.00;;
45208;SDS011;30951;43.994;26.260;2024-03-02T06:47:25;18.08;;;10.23;;
45208;SDS011;30951;43.994;26.260;2024-03-02T06:49:51;21.80;;;10.15;;
45208;SDS011;30951;43.994;26.260;2024-03-02T06:52:16;19.83;;;10.52;;
45208;SDS011;30951;43.994;26.260;2024-03-02T06:54:42;16.65;;;9.43;;
45208;SDS011;30951;43.994;26.260;2024-03-02T06:57:07;19.65;;;10.10;;
45208;SDS011;30951;43.994;26.260;2024-03-02T06:59:33;16.75;;;8.55;;
45208;SDS011;30951;43.994;26.260;2024-03-02T07:01:58;16.95;;;10.13;;
45208;SDS011;30951;43.994;26.260;2024-03-02T07:04:24;19.67;;;10.25;;
45208;SDS011;30951;43.994;26.260;2024-03-02T07:06:50;18.25;;;9.98;;
45208;SDS011;30951;43.994;26.260;2024-03-02T07:09:16;20.90;;;10.25;;
45208;SDS011;30951;43.994;26.260;2024-03-02T07:11:42;24.00;;;11.23;;
45208;SDS011;30951;43.994;26.260;2024-03-02T07:14:07;23.45;;;12.32;;
45208;SDS011;30951;43.994;26.260;2024-03-02T07:16:33;20.02;;;10.38;;
45208;SDS011;30951;43.994;26.260;2024-03-02T07:18:59;21.17;;;10.32;;
45208;SDS011;30951;43.994;26.260;2024-03-02T07:21:26;19.48;;;11.07;;
45208;SDS011;30951;43.994;26.260;2024-03-02T07:23:52;17.50;;;10.55;;
45208;SDS011;30951;43.994;26.260;2024-03-02T07:26:18;20.35;;;10.43;;
45208;SDS011;30951;43.994;26.260;2024-03-02T07:28:44;24.38;;;11.13;;
45208;SDS011;30951;43.994;26.260;2024-03-02T07:31:15;16.45;;;10.05;;
45208;SDS011;30951;43.994;26.260;2024-03-02T07:33:41;15.93;;;9.75;;
45208;SDS011;30951;43.994;26.260;2024-03-02T07:36:07;24.42;;;11.02;;
45208;SDS011;30951;43.994;26.260;2024-03-02T07:38:32;19.45;;;10.70;;
45208;SDS011;30951;43.994;26.260;2024-03-02T07:40:59;19.15;;;10.57;;
45208;SDS011;30951;43.994;26.260;2024-03-02T07:43:25;19.45;;;11.15;;
45208;SDS011;30951;43.994;26.260;2024-03-02T07:45:51;24.77;;;12.18;;
45208;SDS011;30951;43.994;26.260;2024-03-02T07:48:16;20.98;;;10.48;;
45208;SDS011;30951;43.994;26.260;2024-03-02T07:50:42;20.85;;;10.95;;
45208;SDS011;30951;43.994;26.260;2024-03-02T07:53:08;14.73;;;10.23;;
45208;SDS011;30951;43.994;26.260;2024-03-02T07:55:34;27.15;;;13.15;;
45208;SDS011;30951;43.994;26.260;2024-03-02T07:58:00;20.33;;;11.43;;
45208;SDS011;30951;43.994;26.260;2024-03-02T08:00:26;19.10;;;10.23;;
45208;SDS011;30951;43.994;26.260;2024-03-02T08:02:52;21.40;;;10.00;;
45208;SDS011;30951;43.994;26.260;2024-03-02T08:05:18;21.50;;;10.50;;
45208;SDS011;30951;43.994;26.260;2024-03-02T08:07:46;18.23;;;10.65;;
45208;SDS011;30951;43.994;26.260;2024-03-02T08:10:12;21.77;;;11.15;;
45208;SDS011;30951;43.994;26.260;2024-03-02T08:12:38;18.65;;;8.60;;
45208;SDS011;30951;43.994;26.260;2024-03-02T08:15:04;18.23;;;10.38;;
45208;SDS011;30951;43.994;26.260;2024-03-02T08:17:30;24.00;;;11.93;;
45208;SDS011;30951;43.994;26.260;2024-03-02T08:19:55;18.63;;;9.82;;
45208;SDS011;30951;43.994;26.260;2024-03-02T08:22:21;18.92;;;10.45;;
45208;SDS011;30951;43.994;26.260;2024-03-02T08:24:47;17.40;;;10.90;;
45208;SDS011;30951;43.994;26.260;2024-03-02T08:27:13;21.20;;;11.23;;
45208;SDS011;30951;43.994;26.260;2024-03-02T08:29:38;20.17;;;9.93;;
45208;SDS011;30951;43.994;26.260;2024-03-02T08:32:04;17.20;;;10.20;;
45208;SDS011;30951;43.994;26.260;2024-03-02T08:34:31;20.05;;;11.07;;
45208;SDS011;30951;43.994;26.260;2024-03-02T08:36:56;21.10;;;11.40;;
45208;SDS011;30951;43.994;26.260;2024-03-02T08:39:22;18.95;;;10.43;;
45208;SDS011;30951;43.994;26.260;2024-03-02T08:41:47;18.38;;;9.98;;
45208;SDS011;30951;43.994;26.260;2024-03-02T08:44:13;20.05;;;10.98;;
45208;SDS011;30951;43.994;26.260;2024-03-02T08:46:39;28.25;;;13.93;;
45208;SDS011;30951;43.994;26.260;2024-03-02T08:49:05;27.63;;;13.45;;
45208;SDS011;30951;43.994;26.260;2024-03-02T08:51:31;18.08;;;10.50;;
45208;SDS011;30951;43.994;26.260;2024-03-02T08:53:57;20.65;;;13.07;;
45208;SDS011;30951;43.994;26.260;2024-03-02T08:56:23;22.48;;;13.38;;
45208;SDS011;30951;43.994;26.260;2024-03-02T08:58:49;23.70;;;11.98;;
45208;SDS011;30951;43.994;26.260;2024-03-02T09:01:15;26.77;;;11.50;;
45208;SDS011;30951;43.994;26.260;2024-03-02T09:03:41;21.08;;;11.93;;
45208;SDS011;30951;43.994;26.260;2024-03-02T09:06:10;27.75;;;12.68;;
45208;SDS011;30951;43.994;26.260;2024-03-02T09:08:36;18.48;;;10.93;;
45208;SDS011;30951;43.994;26.260;2024-03-02T09:11:02;27.38;;;12.07;;
45208;SDS011;30951;43.994;26.260;2024-03-02T09:13:28;19.67;;;12.23;;
45208;SDS011;30951;43.994;26.260;2024-03-02T09:15:54;25.95;;;13.35;;
45208;SDS011;30951;43.994;26.260;2024-03-02T09:18:20;22.55;;;14.88;;
45208;SDS011;30951;43.994;26.260;2024-03-02T09:20:45;39.08;;;19.98;;
45208;SDS011;30951;43.994;26.260;2024-03-02T09:23:11;24.95;;;11.52;;
45208;SDS011;30951;43.994;26.260;2024-03-02T09:25:36;27.17;;;13.30;;
45208;SDS011;30951;43.994;26.260;2024-03-02T09:28:02;20.92;;;13.10;;
45208;SDS011;30951;43.994;26.260;2024-03-02T09:30:28;27.10;;;12.07;;
45208;SDS011;30951;43.994;26.260;2024-03-02T09:32:53;21.90;;;12.02;;
45208;SDS011;30951;43.994;26.260;2024-03-02T09:35:19;29.00;;;12.82;;
45208;SDS011;30951;43.994;26.260;2024-03-02T09:37:45;20.45;;;12.10;;
45208;SDS011;30951;43.994;26.260;2024-03-02T09:40:10;35.00;;;12.85;;
45208;SDS011;30951;43.994;26.260;2024-03-02T09:42:37;20.95;;;12.43;;
45208;SDS011;30951;43.994;26.260;2024-03-02T09:45:02;23.73;;;12.25;;
45208;SDS011;30951;43.994;26.260;2024-03-02T09:47:28;23.35;;;13.45;;
45208;SDS011;30951;43.994;26.260;2024-03-02T09:49:54;20.02;;;12.65;;
45208;SDS011;30951;43.994;26.260;2024-03-02T09:52:22;20.73;;;12.93;;
45208;SDS011;30951;43.994;26.260;2024-03-02T09:54:48;27.80;;;14.00;;
45208;SDS011;30951;43.994;26.260;2024-03-02T09:57:14;29.30;;;13.85;;
45208;SDS011;30951;43.994;26.260;2024-03-02T09:59:40;24.65;;;12.93;;
45208;SDS011;30951;43.994;26.260;2024-03-02T10:02:05;20.17;;;12.20;;
45208;SDS011;30951;43.994;26.260;2024-03-02T10:04:32;21.30;;;12.63;;
45208;SDS011;30951;43.994;26.260;2024-03-02T10:07:11;21.60;;;12.70;;
45208;SDS011;30951;43.994;26.260;2024-03-02T10:09:40;24.27;;;13.45;;
45208;SDS011;30951;43.994;26.260;2024-03-02T10:12:07;29.33;;;13.32;;
45208;SDS011;30951;43.994;26.260;2024-03-02T10:14:33;22.05;;;13.13;;
45208;SDS011;30951;43.994;26.260;2024-03-02T10:17:02;24.65;;;14.10;;
45208;SDS011;30951;43.994;26.260;2024-03-02T10:19:32;23.10;;;11.85;;
45208;SDS011;30951;43.994;26.260;2024-03-02T10:22:00;24.08;;;12.85;;
45208;SDS011;30951;43.994;26.260;2024-03-02T10:24:26;26.77;;;12.40;;
45208;SDS011;30951;43.994;26.260;2024-03-02T10:26:52;21.98;;;12.45;;
45208;SDS011;30951;43.994;26.260;2024-03-02T10:29:18;22.95;;;12.18;;
45208;SDS011;30951;43.994;26.260;2024-03-02T10:31:44;23.13;;;12.30;;
45208;SDS011;30951;43.994;26.260;2024-03-02T10:34:11;26.50;;;11.35;;
45208;SDS011;30951;43.994;26.260;2024-03-02T10:36:37;22.55;;;11.23;;
45208;SDS011;30951;43.994;26.260;2024-03-02T10:39:06;22.85;;;11.52;;
45208;SDS011;30951;43.994;26.260;2024-03-02T10:41:33;27.23;;;10.70;;
45208;SDS011;30951;43.994;26.260;2024-03-02T10:44:01;19.42;;;10.27;;
45208;SDS011;30951;43.994;26.260;2024-03-02T10:46:28;24.85;;;11.35;;
45208;SDS011;30951;43.994;26.260;2024-03-02T10:48:58;30.67;;;12.10;;
45208;SDS011;30951;43.994;26.260;2024-03-02T10:51:26;19.08;;;11.57;;
45208;SDS011;30951;43.994;26.260;2024-03-02T10:53:53;24.23;;;11.35;;
45208;SDS011;30951;43.994;26.260;2024-03-02T10:56:23;23.67;;;11.07;;
45208;SDS011;30951;43.994;26.260;2024-03-02T10:59:36;22.27;;;12.23;;
45208;SDS011;30951;43.994;26.260;2024-03-02T11:01:43;25.60;;;12.48;;
45208;SDS011;30951;43.994;26.260;2024-03-02T11:04:12;21.15;;;11.43;;
45208;SDS011;30951;43.994;26.260;2024-03-02T11:06:46;20.20;;;11.63;;
45208;SDS011;30951;43.994;26.260;2024-03-02T11:09:13;21.88;;;11.52;;
45208;SDS011;30951;43.994;26.260;2024-03-02T11:11:43;15.43;;;9.95;;
45208;SDS011;30951;43.994;26.260;2024-03-02T11:14:16;19.60;;;10.57;;
45208;SDS011;30951;43.994;26.260;2024-03-02T11:16:42;21.30;;;11.07;;
45208;SDS011;30951;43.994;26.260;2024-03-02T11:19:09;23.25;;;11.48;;
45208;SDS011;30951;43.994;26.260;2024-03-02T11:21:36;19.77;;;11.20;;
45208;SDS011;30951;43.994;26.260;2024-03-02T11:26:46;19.23;;;9.77;;
45208;SDS011;30951;43.994;26.260;2024-03-02T11:32:04;23.83;;;11.07;;
45208;SDS011;30951;43.994;26.260;2024-03-02T11:34:31;20.38;;;10.63;;
45208;SDS011;30951;43.994;26.260;2024-03-02T11:36:58;21.08;;;10.82;;
45208;SDS011;30951;43.994;26.260;2024-03-02T11:39:26;24.48;;;10.88;;
45208;SDS011;30951;43.994;26.260;2024-03-02T11:41:53;17.15;;;10.15;;
45208;SDS011;30951;43.994;26.260;2024-03-02T11:44:19;16.92;;;10.52;;
45208;SDS011;30951;43.994;26.260;2024-03-02T11:46:46;20.02;;;11.52;;
45208;SDS011;30951;43.994;26.260;2024-03-02T11:49:20;19.38;;;10.27;;
45208;SDS011;30951;43.994;26.260;2024-03-02T11:52:21;19.77;;;10.15;;
45208;SDS011;30951;43.994;26.260;2024-03-02T11:54:47;16.95;;;10.35;;
45208;SDS011;30951;43.994;26.260;2024-03-02T11:57:20;20.25;;;10.93;;
45208;SDS011;30951;43.994;26.260;2024-03-02T11:59:50;22.65;;;10.80;;
45208;SDS011;30951;43.994;26.260;2024-03-02T12:02:16;17.13;;;9.15;;
45208;SDS011;30951;43.994;26.260;2024-03-02T12:04:45;18.52;;;10.10;;
45208;SDS011;30951;43.994;26.260;2024-03-02T12:07:12;21.70;;;10.38;;
45208;SDS011;30951;43.994;26.260;2024-03-02T12:09:44;19.23;;;10.52;;
45208;SDS011;30951;43.994;26.260;2024-03-02T12:12:10;18.95;;;11.15;;
45208;SDS011;30951;43.994;26.260;2024-03-02T12:14:37;19.15;;;9.70;;
45208;SDS011;30951;43.994;26.260;2024-03-02T12:17:03;21.48;;;10.07;;
45208;SDS011;30951;43.994;26.260;2024-03-02T12:19:30;18.63;;;10.65;;
45208;SDS011;30951;43.994;26.260;2024-03-02T12:21:56;17.65;;;10.90;;
45208;SDS011;30951;43.994;26.260;2024-03-02T12:24:23;18.77;;;9.80;;
45208;SDS011;30951;43.994;26.260;2024-03-02T12:26:51;18.60;;;11.02;;
45208;SDS011;30951;43.994;26.260;2024-03-02T12:29:19;21.15;;;10.88;;
45208;SDS011;30951;43.994;26.260;2024-03-02T12:31:45;32.67;;;14.27;;
45208;SDS011;30951;43.994;26.260;2024-03-02T12:34:12;25.45;;;12.20;;
45208;SDS011;30951;43.994;26.260;2024-03-02T12:36:38;29.92;;;12.10;;
45208;SDS011;30951;43.994;26.260;2024-03-02T12:39:04;28.67;;;13.93;;
45208;SDS011;30951;43.994;26.260;2024-03-02T12:41:29;22.60;;;12.05;;
45208;SDS011;30951;43.994;26.260;2024-03-02T12:43:55;17.52;;;9.32;;
45208;SDS011;30951;43.994;26.260;2024-03-02T12:46:21;25.40;;;11.90;;
45208;SDS011;30951;43.994;26.260;2024-03-02T12:48:46;15.77;;;9.38;;
45208;SDS011;30951;43.994;26.260;2024-03-02T12:51:12;18.67;;;9.50;;
45208;SDS011;30951;43.994;26.260;2024-03-02T12:53:37;20.63;;;10.60;;
45208;SDS011;30951;43.994;26.260;2024-03-02T12:56:03;22.65;;;11.25;;
45208;SDS011;30951;43.994;26.260;2024-03-02T12:58:29;20.88;;;10.70;;
45208;SDS011;30951;43.994;26.260;2024-03-02T13:01:08;26.65;;;12.88;;
45208;SDS011;30951;43.994;26.260;2024-03-02T13:03:40;18.02;;;9.55;;
45208;SDS011;30951;43.994;26.260;2024-03-02T13:06:06;17.35;;;9.93;;
45208;SDS011;30951;43.994;26.260;2024-03-02T13:08:35;18.92;;;9.27;;
45208;SDS011;30951;43.994;26.260;2024-03-02T13:11:01;24.55;;;10.75;;
45208;SDS011;30951;43.994;26.260;2024-03-02T13:13:30;15.10;;;7.15;;
45208;SDS011;30951;43.994;26.260;2024-03-02T13:15:56;19.17;;;7.75;;
45208;SDS011;30951;43.994;26.260;2024-03-02T13:18:21;20.27;;;9.23;;
45208;SDS011;30951;43.994;26.260;2024-03-02T13:20:47;15.00;;;8.02;;
45208;SDS011;30951;43.994;26.260;2024-03-02T13:23:13;14.48;;;7.50;;
45208;SDS011;30951;43.994;26.260;2024-03-02T13:25:39;14.75;;;8.07;;
45208;SDS011;30951;43.994;26.260;2024-03-02T13:28:05;21.70;;;8.25;;
45208;SDS011;30951;43.994;26.260;2024-03-02T13:30:31;18.42;;;7.53;;
45208;SDS011;30951;43.994;26.260;2024-03-02T13:32:57;14.85;;;8.23;;
45208;SDS011;30951;43.994;26.260;2024-03-02T13:35:23;15.80;;;7.82;;
45208;SDS011;30951;43.994;26.260;2024-03-02T13:37:48;15.43;;;7.70;;
45208;SDS011;30951;43.994;26.260;2024-03-02T13:40:15;14.65;;;7.10;;
45208;SDS011;30951;43.994;26.260;2024-03-02T13:42:48;11.07;;;6.20;;
45208;SDS011;30951;43.994;26.260;2024-03-02T13:45:14;10.70;;;6.75;;
45208;SDS011;30951;43.994;26.260;2024-03-02T13:47:39;14.32;;;8.00;;
45208;SDS011;30951;43.994;26.260;2024-03-02T13:50:05;15.98;;;7.80;;
45208;SDS011;30951;43.994;26.260;2024-03-02T13:52:32;13.77;;;7.70;;
45208;SDS011;30951;43.994;26.260;2024-03-02T13:54:57;12.35;;;7.53;;
45208;SDS011;30951;43.994;26.260;2024-03-02T13:57:23;15.25;;;7.97;;
45208;SDS011;30951;43.994;26.260;2024-03-02T13:59:49;13.57;;;6.95;;
45208;SDS011;30951;43.994;26.260;2024-03-02T14:02:14;16.15;;;8.30;;
45208;SDS011;30951;43.994;26.260;2024-03-02T14:04:40;19.20;;;8.43;;
45208;SDS011;30951;43.994;26.260;2024-03-02T14:07:05;16.20;;;8.05;;
45208;SDS011;30951;43.994;26.260;2024-03-02T14:09:36;18.63;;;7.95;;
45208;SDS011;30951;43.994;26.260;2024-03-02T14:12:01;15.25;;;8.68;;
45208;SDS011;30951;43.994;26.260;2024-03-02T14:14:28;14.77;;;8.27;;
45208;SDS011;30951;43.994;26.260;2024-03-02T14:16:56;11.70;;;8.20;;